createdAt,value
2017-12-27T00:01:33.240Z,3.50
2017-12-27T00:04:06.819Z,3.10
2017-12-27T00:06:40.447Z,2.50
2017-12-27T00:09:14.021Z,3.07
2017-12-27T00:11:49.307Z,3.00
2017-12-27T00:14:23.008Z,3.10
2017-12-27T00:16:56.696Z,2.73
2017-12-27T00:19:45.873Z,2.20
2017-12-27T00:22:33.412Z,2.67
2017-12-27T00:25:06.806Z,2.70
2017-12-27T00:27:41.944Z,4.00
2017-12-27T00:30:15.512Z,3.10
2017-12-27T00:32:43.496Z,3.00
2017-12-27T00:35:11.565Z,2.27
2017-12-27T00:37:39.452Z,2.20
2017-12-27T00:40:07.519Z,2.30
2017-12-27T00:42:36.217Z,3.57
2017-12-27T00:45:04.004Z,3.20
2017-12-27T00:47:33.064Z,3.23
2017-12-27T00:50:00.935Z,3.43
2017-12-27T00:52:29.900Z,3.00
2017-12-27T00:54:58.710Z,4.80
2017-12-27T00:57:26.558Z,4.53
2017-12-27T00:59:54.400Z,3.30
2017-12-27T01:02:22.295Z,3.30
2017-12-27T01:04:50.376Z,3.80
2017-12-27T01:07:19.805Z,4.27
2017-12-27T01:09:47.615Z,4.30
2017-12-27T01:12:16.418Z,3.30
2017-12-27T01:14:44.304Z,7.73
2017-12-27T01:17:12.170Z,3.30
2017-12-27T01:19:40.325Z,4.30
2017-12-27T01:22:08.318Z,3.93
2017-12-27T01:24:36.268Z,3.60
2017-12-27T01:27:04.126Z,3.73
2017-12-27T01:29:32.094Z,4.30
2017-12-27T01:32:00.595Z,4.20
2017-12-27T01:34:28.549Z,6.80
2017-12-27T01:36:56.330Z,5.00
2017-12-27T01:39:24.381Z,4.67
2017-12-27T01:41:52.370Z,4.70
2017-12-27T01:44:20.140Z,4.37
2017-12-27T01:46:49.029Z,4.83
2017-12-27T01:49:17.177Z,5.60
2017-12-27T01:51:45.072Z,5.17
2017-12-27T01:54:13.132Z,5.10
2017-12-27T01:56:41.434Z,4.87
2017-12-27T01:59:10.410Z,4.73
2017-12-27T02:01:38.376Z,5.10
2017-12-27T02:04:06.364Z,4.20
2017-12-27T02:06:35.036Z,4.77
2017-12-27T02:09:03.204Z,4.03
2017-12-27T02:11:30.966Z,4.13
2017-12-27T02:13:59.119Z,4.60
2017-12-27T02:16:26.983Z,4.77
2017-12-27T02:18:55.485Z,4.60
2017-12-27T02:21:24.164Z,5.00
2017-12-27T02:23:52.038Z,4.47
2017-12-27T02:26:20.515Z,5.20
2017-12-27T02:28:48.580Z,4.00
2017-12-27T02:31:16.534Z,4.50
2017-12-27T02:33:44.512Z,4.60
2017-12-27T02:36:12.401Z,4.50
2017-12-27T02:38:52.218Z,4.60
2017-12-27T02:41:20.082Z,4.17
2017-12-27T02:43:47.970Z,3.40
2017-12-27T02:46:15.918Z,3.37
2017-12-27T02:48:43.870Z,3.80
2017-12-27T02:51:11.651Z,3.20
2017-12-27T02:53:39.541Z,3.00
2017-12-27T02:56:07.509Z,3.33
2017-12-27T02:58:35.398Z,4.03
2017-12-27T03:01:03.961Z,3.90
2017-12-27T03:03:32.005Z,3.93
2017-12-27T03:05:59.876Z,7.87
2017-12-27T03:08:27.930Z,7.37
2017-12-27T03:10:56.630Z,7.97
2017-12-27T03:13:24.707Z,7.20
2017-12-27T03:15:52.677Z,13.53
2017-12-27T03:18:20.637Z,15.17
2017-12-27T03:20:48.386Z,13.47
2017-12-27T03:23:16.371Z,7.70
2017-12-27T03:25:44.342Z,6.90
2017-12-27T03:28:12.307Z,10.10
2017-12-27T03:30:40.086Z,11.70
2017-12-27T03:33:08.184Z,9.63
2017-12-27T03:35:36.005Z,6.23
2017-12-27T03:38:03.881Z,2.87
2017-12-27T03:40:31.675Z,2.33
2017-12-27T03:43:00.551Z,2.20
2017-12-27T03:45:28.493Z,2.20
2017-12-27T03:47:56.387Z,1.97
2017-12-27T03:50:25.077Z,2.40
2017-12-27T03:52:52.936Z,2.83
2017-12-27T03:55:20.800Z,2.60
2017-12-27T03:57:49.498Z,2.77
2017-12-27T04:00:17.349Z,3.23
2017-12-27T04:02:45.413Z,2.80
2017-12-27T04:05:13.910Z,2.80
2017-12-27T04:07:42.489Z,3.23
2017-12-27T04:10:11.254Z,3.20
2017-12-27T04:12:39.558Z,3.50
2017-12-27T04:15:07.517Z,3.23
2017-12-27T04:17:35.472Z,3.87
2017-12-27T04:20:03.356Z,3.27
2017-12-27T04:22:31.224Z,4.50
2017-12-27T04:24:59.192Z,4.00
2017-12-27T04:27:27.164Z,3.33
2017-12-27T04:29:55.028Z,4.00
2017-12-27T04:32:23.512Z,3.83
2017-12-27T04:34:51.477Z,4.27
2017-12-27T04:37:19.423Z,3.93
2017-12-27T04:39:48.390Z,3.80
2017-12-27T04:42:16.304Z,4.10
2017-12-27T04:44:44.171Z,3.60
2017-12-27T04:47:12.036Z,3.97
2017-12-27T04:49:39.880Z,3.63
2017-12-27T04:52:07.786Z,3.20
2017-12-27T04:54:36.152Z,2.83
2017-12-27T04:57:04.115Z,2.37
2017-12-27T04:59:31.987Z,2.93
2017-12-27T05:01:59.916Z,2.77
2017-12-27T05:04:29.145Z,3.23
2017-12-27T05:07:01.224Z,4.03
2017-12-27T05:09:30.186Z,3.47
2017-12-27T05:11:58.076Z,3.10
2017-12-27T05:14:27.792Z,3.67
2017-12-27T05:16:55.935Z,3.57
2017-12-27T05:19:31.813Z,2.80
2017-12-27T05:21:59.600Z,3.57
2017-12-27T05:24:28.267Z,3.50
2017-12-27T05:26:56.753Z,3.60
2017-12-27T05:29:24.736Z,3.43
2017-12-27T05:31:53.494Z,3.80
2017-12-27T05:34:21.935Z,3.53
2017-12-27T05:36:49.747Z,3.00
2017-12-27T05:39:18.420Z,3.23
2017-12-27T05:41:46.301Z,3.20
2017-12-27T05:44:14.689Z,2.97
2017-12-27T05:46:42.740Z,3.53
2017-12-27T05:49:10.608Z,4.00
2017-12-27T05:51:38.418Z,3.60
2017-12-27T05:54:06.198Z,3.70
2017-12-27T05:56:34.105Z,3.50
2017-12-27T05:59:02.123Z,4.37
2017-12-27T06:01:30.268Z,4.00
2017-12-27T06:03:59.114Z,3.70
2017-12-27T06:06:27.425Z,2.90
2017-12-27T06:08:55.715Z,3.73
2017-12-27T06:11:24.464Z,3.93
2017-12-27T06:13:52.386Z,3.63
2017-12-27T06:16:20.290Z,4.27
2017-12-27T06:18:48.301Z,4.60
2017-12-27T06:21:16.947Z,5.40
2017-12-27T06:23:44.811Z,6.17
2017-12-27T06:26:12.571Z,5.53
2017-12-27T06:28:40.555Z,5.40
2017-12-27T06:31:08.528Z,5.70
2017-12-27T06:33:36.522Z,48.90
2017-12-27T06:36:04.876Z,35.90
2017-12-27T06:38:32.830Z,17.17
2017-12-27T06:41:00.603Z,10.10
2017-12-27T06:43:29.338Z,7.67
2017-12-27T06:45:58.606Z,7.10
2017-12-27T06:48:27.110Z,6.90
2017-12-27T06:50:56.163Z,7.57
2017-12-27T06:53:24.156Z,7.40
2017-12-27T06:55:52.306Z,9.47
2017-12-27T06:58:20.383Z,8.63
2017-12-27T07:00:48.336Z,8.80
2017-12-27T07:03:16.301Z,6.40
2017-12-27T07:05:44.922Z,8.00
2017-12-27T07:08:12.721Z,7.60
2017-12-27T07:10:40.865Z,7.30
2017-12-27T07:13:10.458Z,4.93
2017-12-27T07:15:38.320Z,5.07
2017-12-27T07:18:06.368Z,5.00
2017-12-27T07:20:34.340Z,5.80
2017-12-27T07:23:02.127Z,5.77
2017-12-27T07:25:30.195Z,5.97
2017-12-27T07:27:58.215Z,7.33
2017-12-27T07:30:26.027Z,7.60
2017-12-27T07:32:54.008Z,10.90
2017-12-27T07:35:21.866Z,13.27
2017-12-27T07:37:50.547Z,12.70
2017-12-27T07:40:18.448Z,12.03
2017-12-27T07:42:47.291Z,9.77
2017-12-27T07:45:15.154Z,10.90
2017-12-27T07:47:43.119Z,10.90
2017-12-27T07:50:11.084Z,10.27
2017-12-27T07:52:39.057Z,9.57
2017-12-27T07:55:08.971Z,9.10
2017-12-27T07:57:37.023Z,11.10
2017-12-27T08:00:06.680Z,10.40
2017-12-27T08:02:34.648Z,11.03
2017-12-27T08:05:02.895Z,9.40
2017-12-27T08:07:30.991Z,9.23
2017-12-27T08:09:59.036Z,8.10
2017-12-27T08:12:27.017Z,9.10
2017-12-27T08:14:54.898Z,7.60
2017-12-27T08:17:22.800Z,8.17
2017-12-27T08:19:51.524Z,8.67
2017-12-27T08:22:19.495Z,8.93
2017-12-27T08:24:47.473Z,8.30
2017-12-27T08:27:15.367Z,9.13
2017-12-27T08:29:43.934Z,8.00
2017-12-27T08:32:12.704Z,7.30
2017-12-27T08:34:41.005Z,8.60
2017-12-27T08:37:08.941Z,7.57
2017-12-27T08:39:36.918Z,8.50
2017-12-27T08:42:04.847Z,8.70
2017-12-27T08:44:32.854Z,8.10
2017-12-27T08:47:01.771Z,7.80
2017-12-27T08:49:30.010Z,7.67
2017-12-27T08:51:58.807Z,9.30
2017-12-27T08:54:26.673Z,8.00
2017-12-27T08:56:55.190Z,8.47
2017-12-27T08:59:23.299Z,8.27
2017-12-27T09:01:51.406Z,9.50
2017-12-27T09:04:19.368Z,7.87
2017-12-27T09:06:47.149Z,8.00
2017-12-27T09:09:15.234Z,8.90
2017-12-27T09:11:43.272Z,8.93
2017-12-27T09:14:11.185Z,12.53
2017-12-27T09:16:39.945Z,9.97
2017-12-27T09:19:07.892Z,9.47
2017-12-27T09:21:36.274Z,9.30
2017-12-27T09:24:05.062Z,10.67
2017-12-27T09:26:33.031Z,10.50
2017-12-27T09:29:00.921Z,11.70
2017-12-27T09:31:28.757Z,13.33
2017-12-27T09:33:56.762Z,79.83
2017-12-27T09:36:24.703Z,21.50
2017-12-27T09:38:54.101Z,28.90
2017-12-27T09:41:22.201Z,30.13
2017-12-27T09:43:50.145Z,13.20
2017-12-27T09:46:17.934Z,12.10
2017-12-27T09:48:46.592Z,15.47
2017-12-27T09:51:14.495Z,11.50
2017-12-27T09:53:42.429Z,11.57
2017-12-27T09:56:10.403Z,10.83
2017-12-27T09:58:38.212Z,8.93
2017-12-27T10:01:06.865Z,10.00
2017-12-27T10:03:34.815Z,7.60
2017-12-27T10:06:03.502Z,8.23
2017-12-27T10:08:31.468Z,7.90
2017-12-27T10:10:59.544Z,7.00
2017-12-27T10:13:27.530Z,10.50
2017-12-27T10:15:57.147Z,12.70
2017-12-27T10:18:26.927Z,15.47
2017-12-27T10:20:54.922Z,13.23
2017-12-27T10:23:23.892Z,9.50
2017-12-27T10:25:51.867Z,8.43
2017-12-27T10:28:20.234Z,7.30
2017-12-27T10:30:48.209Z,6.07
2017-12-27T10:33:17.648Z,6.27
2017-12-27T10:35:46.322Z,8.93
2017-12-27T10:38:14.286Z,8.03
2017-12-27T10:40:42.149Z,7.97
2017-12-27T10:43:10.102Z,8.10
2017-12-27T10:45:38.089Z,6.67
2017-12-27T10:48:06.747Z,6.60
2017-12-27T10:50:34.714Z,8.10
2017-12-27T10:53:02.575Z,7.90
2017-12-27T10:55:30.398Z,10.97
2017-12-27T10:57:59.868Z,10.77
2017-12-27T11:00:27.921Z,11.33
2017-12-27T11:02:55.899Z,41.50
2017-12-27T11:05:23.972Z,37.80
2017-12-27T11:07:51.862Z,13.43
2017-12-27T11:10:19.721Z,10.53
2017-12-27T11:12:48.208Z,10.60
2017-12-27T11:15:16.148Z,12.63
2017-12-27T11:17:43.945Z,12.37
2017-12-27T11:20:11.885Z,11.20
2017-12-27T11:22:39.730Z,10.70
2017-12-27T11:25:07.538Z,9.70
2017-12-27T11:27:35.417Z,9.33
2017-12-27T11:30:03.265Z,7.10
2017-12-27T11:32:31.215Z,7.83
2017-12-27T11:35:00.030Z,7.30
2017-12-27T11:37:27.870Z,8.07
2017-12-27T11:39:56.550Z,11.57
2017-12-27T11:42:24.435Z,12.20
2017-12-27T11:44:52.425Z,11.67
2017-12-27T11:47:20.467Z,12.37
2017-12-27T11:49:48.429Z,11.50
2017-12-27T11:52:16.400Z,11.27
2017-12-27T11:54:44.262Z,11.70
2017-12-27T11:57:12.677Z,11.53
2017-12-27T11:59:40.636Z,10.17
2017-12-27T12:02:09.512Z,10.83
2017-12-27T12:04:38.085Z,11.60
2017-12-27T12:07:05.876Z,12.47
2017-12-27T12:09:33.678Z,12.47
2017-12-27T12:12:02.343Z,14.20
2017-12-27T12:14:30.969Z,16.73
2017-12-27T12:16:58.960Z,20.73
2017-12-27T12:19:27.146Z,20.70
2017-12-27T12:21:55.125Z,34.17
2017-12-27T12:24:23.096Z,12.47
2017-12-27T12:26:51.038Z,14.20
2017-12-27T12:29:18.907Z,14.70
2017-12-27T12:31:46.818Z,10.37
2017-12-27T12:34:15.555Z,10.93
2017-12-27T12:36:43.521Z,10.10
2017-12-27T12:39:11.489Z,8.87
2017-12-27T12:41:39.346Z,8.23
2017-12-27T12:44:07.224Z,9.10
2017-12-27T12:46:35.206Z,9.00
2017-12-27T12:49:03.101Z,9.30
2017-12-27T12:51:32.172Z,7.30
2017-12-27T12:54:00.124Z,6.83
2017-12-27T12:56:28.041Z,6.93
2017-12-27T12:58:56.985Z,7.93
2017-12-27T13:01:24.877Z,8.70
2017-12-27T13:03:52.840Z,8.53
2017-12-27T13:06:20.709Z,9.83
2017-12-27T13:08:49.304Z,10.03
2017-12-27T13:11:17.239Z,10.50
2017-12-27T13:13:45.209Z,8.43
2017-12-27T13:16:13.178Z,9.60
2017-12-27T13:18:41.246Z,8.40
2017-12-27T13:21:09.837Z,8.70
2017-12-27T13:23:37.695Z,7.10
2017-12-27T13:26:05.765Z,6.90
2017-12-27T13:28:33.774Z,6.27
2017-12-27T13:31:01.742Z,6.47
2017-12-27T13:33:29.775Z,8.50
2017-12-27T13:35:57.675Z,8.27
2017-12-27T13:38:26.878Z,9.67
2017-12-27T13:40:56.668Z,7.23
2017-12-27T13:43:24.545Z,6.63
2017-12-27T13:45:52.495Z,7.13
2017-12-27T13:48:21.000Z,7.23
2017-12-27T13:50:48.941Z,6.80
2017-12-27T13:53:16.942Z,6.57
2017-12-27T13:55:44.809Z,5.70
2017-12-27T13:58:12.611Z,5.87
2017-12-27T14:00:40.653Z,6.30
2017-12-27T14:03:08.571Z,6.37
2017-12-27T14:05:36.649Z,5.03
2017-12-27T14:08:04.721Z,5.50
2017-12-27T14:10:33.534Z,6.13
2017-12-27T14:13:01.684Z,6.50
2017-12-27T14:15:30.400Z,14.40
2017-12-27T14:17:58.261Z,7.90
2017-12-27T14:20:26.205Z,7.00
2017-12-27T14:22:55.537Z,10.60
2017-12-27T14:25:24.304Z,10.67
2017-12-27T14:27:52.801Z,9.47
2017-12-27T14:30:20.841Z,9.90
2017-12-27T14:32:49.218Z,14.70
2017-12-27T14:35:17.045Z,20.60
2017-12-27T14:37:44.876Z,11.13
2017-12-27T14:40:12.738Z,14.00
2017-12-27T14:42:42.344Z,16.57
2017-12-27T14:45:10.392Z,17.83
2017-12-27T14:47:38.908Z,17.03
2017-12-27T14:50:06.842Z,14.63
2017-12-27T14:52:35.531Z,24.57
2017-12-27T14:55:03.696Z,21.17
2017-12-27T14:57:31.677Z,20.83
2017-12-27T15:00:00.159Z,15.63
2017-12-27T15:02:28.174Z,14.00
2017-12-27T15:04:56.925Z,12.90
2017-12-27T15:07:24.878Z,10.83
2017-12-27T15:09:52.841Z,9.33
2017-12-27T15:12:20.738Z,9.70
2017-12-27T15:14:48.683Z,13.80
2017-12-27T15:17:16.754Z,10.30
2017-12-27T15:19:44.661Z,10.60
2017-12-27T15:22:13.368Z,10.37
2017-12-27T15:24:41.199Z,12.00
2017-12-27T15:27:09.144Z,11.37
2017-12-27T15:29:37.105Z,10.47
2017-12-27T15:32:05.184Z,10.90
2017-12-27T15:34:33.069Z,10.33
2017-12-27T15:37:00.935Z,10.93
2017-12-27T15:39:28.815Z,15.77
2017-12-27T15:41:57.465Z,14.27
2017-12-27T15:44:25.302Z,9.87
2017-12-27T15:46:53.406Z,9.67
2017-12-27T15:49:21.393Z,8.80
2017-12-27T15:51:49.372Z,13.40
2017-12-27T15:54:17.206Z,20.53
2017-12-27T15:56:45.102Z,17.93
2017-12-27T15:59:12.959Z,11.20
2017-12-27T16:01:40.931Z,10.80
2017-12-27T16:04:09.733Z,12.10
2017-12-27T16:06:37.671Z,12.57
2017-12-27T16:09:06.657Z,11.10
2017-12-27T16:11:34.624Z,10.90
2017-12-27T16:14:02.523Z,12.67
2017-12-27T16:16:30.458Z,14.80
2017-12-27T16:18:58.533Z,20.37
2017-12-27T16:21:26.496Z,16.60
2017-12-27T16:23:54.465Z,11.00
2017-12-27T16:26:24.378Z,11.30
2017-12-27T16:28:52.349Z,10.87
2017-12-27T16:31:20.256Z,10.67
2017-12-27T16:33:48.385Z,10.60
2017-12-27T16:36:16.380Z,9.70
2017-12-27T16:38:44.539Z,12.53
2017-12-27T16:41:12.499Z,11.80
2017-12-27T16:43:40.982Z,10.10
2017-12-27T16:46:08.865Z,11.33
2017-12-27T16:48:37.461Z,12.10
2017-12-27T16:51:05.408Z,9.90
2017-12-27T16:53:33.301Z,12.77
2017-12-27T16:56:01.161Z,11.90
2017-12-27T16:58:29.236Z,12.30
2017-12-27T17:00:57.178Z,12.43
2017-12-27T17:03:25.139Z,12.03
2017-12-27T17:05:53.110Z,10.10
2017-12-27T17:08:20.983Z,10.60
2017-12-27T17:10:49.247Z,14.20
2017-12-27T17:13:17.221Z,13.80
2017-12-27T17:15:45.119Z,12.37
2017-12-27T17:18:12.989Z,12.60
2017-12-27T17:20:41.055Z,13.07
2017-12-27T17:23:08.995Z,11.77
2017-12-27T17:25:36.988Z,13.57
2017-12-27T17:28:04.928Z,13.77
2017-12-27T17:30:32.798Z,14.40
2017-12-27T17:33:00.578Z,16.30
2017-12-27T17:35:28.531Z,14.60
2017-12-27T17:37:56.444Z,15.17
2017-12-27T17:40:25.179Z,14.00
2017-12-27T17:42:53.062Z,16.03
2017-12-27T17:45:21.536Z,16.50
2017-12-27T17:47:49.538Z,14.90
2017-12-27T17:50:18.287Z,23.83
2017-12-27T17:52:46.259Z,29.53
2017-12-27T17:55:14.227Z,33.30
2017-12-27T17:57:42.246Z,43.37
2017-12-27T18:00:11.212Z,25.23
2017-12-27T18:02:39.156Z,21.07
2017-12-27T18:05:07.124Z,17.03
2017-12-27T18:07:35.091Z,15.93
2017-12-27T18:10:02.988Z,14.13
2017-12-27T18:12:32.080Z,16.60
2017-12-27T18:15:00.777Z,13.50
2017-12-27T18:17:29.547Z,15.07
2017-12-27T18:19:57.598Z,13.20
2017-12-27T18:22:25.488Z,12.70
2017-12-27T18:24:53.364Z,11.03
2017-12-27T18:27:21.214Z,12.80
2017-12-27T18:29:49.092Z,15.73
2017-12-27T18:32:16.956Z,16.83
2017-12-27T18:34:45.437Z,13.00
2017-12-27T18:37:13.403Z,14.60
2017-12-27T18:39:41.346Z,10.37
2017-12-27T18:42:09.317Z,11.83
2017-12-27T18:44:38.000Z,12.57
2017-12-27T18:47:05.901Z,14.30
2017-12-27T18:49:34.022Z,11.70
2017-12-27T18:52:01.861Z,15.00
2017-12-27T18:54:30.909Z,11.20
2017-12-27T18:56:58.768Z,13.57
2017-12-27T18:59:26.746Z,13.30
2017-12-27T19:01:54.944Z,13.17
2017-12-27T19:04:22.818Z,16.00
2017-12-27T19:06:51.571Z,15.17
2017-12-27T19:09:19.538Z,15.97
2017-12-27T19:11:47.438Z,5.80
2017-12-27T19:14:16.122Z,6.80
2017-12-27T19:16:44.786Z,5.47
2017-12-27T19:19:12.671Z,7.43
2017-12-27T19:21:40.551Z,5.47
2017-12-27T19:24:09.226Z,5.67
2017-12-27T19:26:37.155Z,4.70
2017-12-27T19:29:05.272Z,4.00
2017-12-27T19:31:33.116Z,4.57
2017-12-27T19:34:00.924Z,4.67
2017-12-27T19:36:28.836Z,4.50
2017-12-27T19:38:57.027Z,5.13
2017-12-27T19:41:24.966Z,5.17
2017-12-27T19:43:52.937Z,4.57
2017-12-27T19:46:21.338Z,4.97
2017-12-27T19:48:49.212Z,7.07
2017-12-27T19:51:17.180Z,10.20
2017-12-27T19:53:45.643Z,11.73
2017-12-27T19:56:13.601Z,16.70
2017-12-27T19:58:41.602Z,14.50
2017-12-27T20:01:09.538Z,18.77
2017-12-27T20:03:37.614Z,15.27
2017-12-27T20:06:06.511Z,16.97
2017-12-27T20:08:34.396Z,15.40
2017-12-27T20:11:02.356Z,13.43
2017-12-27T20:13:30.650Z,14.40
2017-12-27T20:15:59.320Z,12.27
2017-12-27T20:18:27.199Z,14.67
2017-12-27T20:20:55.958Z,17.07
2017-12-27T20:23:24.023Z,15.67
2017-12-27T20:25:51.992Z,14.87
2017-12-27T20:28:19.956Z,14.30
2017-12-27T20:30:47.854Z,14.73
2017-12-27T20:33:16.431Z,15.27
2017-12-27T20:35:44.338Z,12.13
2017-12-27T20:38:12.368Z,12.90
2017-12-27T20:40:41.244Z,11.97
2017-12-27T20:43:09.209Z,14.70
2017-12-27T20:45:37.096Z,16.23
2017-12-27T20:48:05.063Z,12.83
2017-12-27T20:50:34.642Z,13.73
2017-12-27T20:53:02.623Z,22.83
2017-12-27T20:55:30.485Z,21.63
2017-12-27T20:57:58.452Z,20.13
2017-12-27T21:00:26.421Z,12.73
2017-12-27T21:02:54.389Z,13.90
2017-12-27T21:05:23.288Z,14.77
2017-12-27T21:07:51.562Z,12.00
2017-12-27T21:10:19.441Z,11.57
2017-12-27T21:12:47.319Z,9.70
2017-12-27T21:15:15.366Z,8.93
2017-12-27T21:17:43.329Z,9.20
2017-12-27T21:20:11.214Z,5.53
2017-12-27T21:22:39.161Z,6.63
2017-12-27T21:25:07.030Z,7.93
2017-12-27T21:27:35.198Z,6.37
2017-12-27T21:30:03.187Z,7.20
2017-12-27T21:32:32.162Z,10.00
2017-12-27T21:35:00.265Z,9.07
2017-12-27T21:37:28.233Z,8.30
2017-12-27T21:39:56.422Z,5.23
2017-12-27T21:42:27.505Z,4.40
2017-12-27T21:44:55.404Z,4.33
2017-12-27T21:47:29.804Z,3.50
2017-12-27T21:49:59.129Z,7.00
2017-12-27T21:52:27.084Z,4.00
2017-12-27T21:54:55.146Z,5.70
2017-12-27T21:57:23.933Z,6.90
2017-12-27T21:59:57.671Z,6.80
2017-12-27T22:02:26.459Z,6.10
2017-12-27T22:04:54.398Z,5.23
2017-12-27T22:07:23.904Z,6.77
2017-12-27T22:09:52.280Z,7.13
2017-12-27T22:12:20.249Z,8.10
2017-12-27T22:14:48.132Z,8.20
2017-12-27T22:17:16.721Z,8.20
2017-12-27T22:19:44.689Z,9.10
2017-12-27T22:22:12.560Z,8.23
2017-12-27T22:24:40.425Z,8.10
2017-12-27T22:27:08.377Z,9.50
2017-12-27T22:29:36.539Z,8.20
2017-12-27T22:32:04.325Z,5.80
2017-12-27T22:34:32.281Z,8.03
2017-12-27T22:37:00.161Z,8.40
2017-12-27T22:39:28.133Z,7.73
2017-12-27T22:41:57.628Z,8.03
2017-12-27T22:44:25.496Z,5.23
2017-12-27T22:46:53.553Z,6.37
2017-12-27T22:49:21.635Z,7.40
2017-12-27T22:51:49.689Z,6.23
2017-12-27T22:54:17.496Z,5.77
2017-12-27T22:56:45.529Z,7.07
2017-12-27T22:59:13.904Z,3.90
2017-12-27T23:01:41.768Z,3.93
2017-12-27T23:04:09.656Z,5.37
2017-12-27T23:06:37.810Z,4.70
2017-12-27T23:09:06.908Z,4.40
2017-12-27T23:11:34.692Z,4.90
2017-12-27T23:14:02.637Z,5.13
2017-12-27T23:16:30.531Z,5.17
2017-12-27T23:18:59.320Z,5.83
2017-12-27T23:21:27.137Z,4.87
2017-12-27T23:23:55.052Z,17.83
2017-12-27T23:26:23.001Z,8.97
2017-12-27T23:28:51.605Z,2.60
2017-12-27T23:31:20.388Z,2.87
2017-12-27T23:33:48.548Z,3.50
2017-12-27T23:36:16.733Z,3.07
2017-12-27T23:38:44.812Z,6.47
2017-12-27T23:41:12.677Z,6.20
2017-12-27T23:43:40.624Z,4.60
2017-12-27T23:46:09.234Z,3.23
2017-12-27T23:48:37.195Z,3.37
2017-12-27T23:51:05.137Z,2.93
2017-12-27T23:53:32.922Z,3.23
2017-12-27T23:56:02.103Z,2.77
2017-12-27T23:58:32.146Z,2.77
